Time;durP1;ratioP1;P1;durP2;ratioP2;P2;SDS_P1;SDS_P2;PMS_P1;PMS_P2;Temp;Humidity;BMP_temperature;BMP_pressure;BME280_temperature;BME280_humidity;BME280_pressure;Samples;Min_cycle;Max_cycle;Signal;HPM_P1;HPM_P2
2022/03/11 04:53:50;;;;;;;;;;;;;;;1.30;89.06;99759.72;4963420;28;19937;-82
2022/03/11 04:56:16;;;;;;;;;;;;;;;1.37;88.89;99761.38;4973960;28;19925;-81
2022/03/11 04:58:41;;;;;;;;;;;;;;;1.29;88.65;99753.59;4972460;28;19918;-81
2022/03/11 05:01:07;;;;;;;;;;;;;;;1.34;88.38;99751.84;4973767;28;20065;-81
2022/03/11 05:03:32;;;;;;;;;;;;;;;1.29;87.71;99763.19;4973673;28;19973;-81
2022/03/11 05:05:58;;;;;;;;;;;;;;;1.23;87.28;99759.72;4972795;28;20009;-80
2022/03/11 05:08:23;;;;;;;;;;;;;;;1.25;86.81;99757.97;4972368;28;19965;-80
2022/03/11 05:10:48;;;;;;;;;;;;;;;1.19;86.38;99752.78;4973667;28;19922;-83
2022/03/11 05:13:14;;;;;;;;;;;;;;;1.20;85.87;99764.13;4972361;28;19926;-81
2022/03/11 05:15:39;;;;;;;;;;;;;;;1.15;85.42;99761.53;4980433;28;19918;-81
2022/03/11 05:18:04;;;;;;;;;;;;;;;1.18;85.01;99761.50;4973614;28;19918;-81
2022/03/11 05:20:30;;;;;;;;;;;;;;;1.09;84.79;99756.31;4973322;28;19929;-81
2022/03/11 05:22:56;;;;;;;;;;;;;;;1.09;84.70;99761.56;4970963;28;19918;-81
2022/03/11 05:25:21;;;;;;;;;;;;;;;1.10;84.42;99763.25;4973326;28;19922;-81
2022/03/11 05:27:46;;;;;;;;;;;;;;;1.05;84.16;99762.44;4973357;28;19918;-82
2022/03/11 05:30:12;;;;;;;;;;;;;;;1.05;83.99;99765.91;4972196;28;20186;-81
2022/03/11 05:32:41;;;;;;;;;;;;;;;1.01;83.90;99768.53;4973383;28;19924;-82
2022/03/11 05:35:06;;;;;;;;;;;;;;;1.02;83.63;99767.66;4973495;28;19918;-81
2022/03/11 05:37:32;;;;;;;;;;;;;;;1.03;83.59;99772.00;4978819;28;20025;-80
2022/03/11 05:39:57;;;;;;;;;;;;;;;1.04;83.47;99774.63;4973294;28;20350;-80
2022/03/11 05:42:22;;;;;;;;;;;;;;;0.95;83.54;99773.78;4973110;28;19926;-80
2022/03/11 05:44:48;;;;;;;;;;;;;;;1.00;83.27;99772.03;4972371;28;20382;-80
2022/03/11 05:47:13;;;;;;;;;;;;;;;0.99;83.20;99770.28;4973157;28;19922;-81
2022/03/11 05:49:38;;;;;;;;;;;;;;;0.98;83.03;99772.03;4972986;28;19918;-81
2022/03/11 05:52:03;;;;;;;;;;;;;;;0.97;83.06;99774.63;4954325;28;19922;-81
2022/03/11 05:54:29;;;;;;;;;;;;;;;0.90;83.19;99772.06;4972882;28;19957;-82
2022/03/11 05:56:54;;;;;;;;;;;;;;;0.96;83.02;99772.91;4973059;28;19922;-81
2022/03/11 08:48:58;;;;;;;;;;;;;;;0.81;78.73;99769.47;4956783;28;19981;-81
2022/03/11 08:51:23;;;;;;;;;;;;;;;0.76;78.74;99771.22;4972443;28;19926;-81
2022/03/11 08:53:49;;;;;;;;;;;;;;;0.79;78.97;99754.72;4973304;28;20021;-81
2022/03/11 08:56:20;;;;;;;;;;;;;;;0.81;78.85;99740.78;4973853;28;20004;-82
2022/03/11 08:58:45;;;;;;;;;;;;;;;0.79;78.75;99732.09;4973400;28;19964;-82
2022/03/11 09:01:10;;;;;;;;;;;;;;;0.83;78.85;99748.59;4972714;28;20363;-81
2022/03/11 09:03:36;;;;;;;;;;;;;;;0.87;79.44;99751.19;4972653;28;19924;-82
2022/03/11 09:06:01;;;;;;;;;;;;;;;0.85;79.56;99757.31;4973629;28;19968;-82
2022/03/11 09:08:26;;;;;;;;;;;;;;;0.83;79.29;99764.25;4973698;28;20385;-82
2022/03/11 09:10:51;;;;;;;;;;;;;;;0.80;79.12;99754.72;4973621;28;19991;-81
2022/03/11 09:13:17;;;;;;;;;;;;;;;0.86;79.31;99744.25;4973732;28;19925;-82
2022/03/11 09:15:42;;;;;;;;;;;;;;;0.81;79.14;99732.09;4973589;28;19968;-82
2022/03/11 09:18:07;;;;;;;;;;;;;;;0.81;78.99;99732.09;4972406;28;19929;-83
2022/03/11 09:20:34;;;;;;;;;;;;;;;0.85;78.73;99736.44;4973495;28;19972;-83
2022/03/11 09:22:59;;;;;;;;;;;;;;;0.84;78.58;99730.31;4972804;28;19922;-83
2022/03/11 09:25:24;;;;;;;;;;;;;;;0.83;78.21;99728.63;4973561;28;20277;-83
2022/03/11 09:27:49;;;;;;;;;;;;;;;0.86;78.24;99731.22;4972082;28;19918;-84
2022/03/11 09:30:15;;;;;;;;;;;;;;;0.80;78.14;99723.41;4972202;28;19918;-83
2022/03/11 09:32:42;;;;;;;;;;;;;;;0.85;78.12;99729.47;4972209;28;19919;-84
2022/03/11 09:35:08;;;;;;;;;;;;;;;0.87;77.96;99730.31;4973375;28;19922;-84
2022/03/11 09:37:34;;;;;;;;;;;;;;;0.89;77.74;99725.97;4973108;28;19968;-83
2022/03/11 09:39:59;;;;;;;;;;;;;;;0.80;77.69;99727.72;4974092;28;19918;-83
2022/03/11 09:42:24;;;;;;;;;;;;;;;0.87;77.72;99727.72;4973369;28;19922;-84
2022/03/11 09:44:51;;;;;;;;;;;;;;;0.87;77.55;99719.88;4973074;28;20361;-84
2022/03/11 09:47:18;;;;;;;;;;;;;;;0.82;77.40;99711.22;4969925;28;20377;-83
2022/03/11 09:49:44;;;;;;;;;;;;;;;0.83;77.31;99701.63;4972892;28;20270;-83
2022/03/11 09:52:10;;;;;;;;;;;;;;;0.88;77.55;99695.53;4972906;28;19980;-83
2022/03/11 09:54:35;;;;;;;;;;;;;;;0.86;77.28;99692.06;4973265;28;20369;-83
2022/03/11 09:57:01;;;;;;;;;;;;;;;0.96;77.53;99681.56;4972936;28;19989;-84
2022/03/11 09:59:27;;;;;;;;;;;;;;;0.95;77.33;99669.41;4973425;28;19969;-83
2022/03/11 10:01:52;;;;;;;;;;;;;;;0.90;77.07;99683.34;4971577;28;20322;-84
2022/03/11 10:04:17;;;;;;;;;;;;;;;0.95;77.16;99685.06;4972317;28;19918;-84
2022/03/11 10:06:43;;;;;;;;;;;;;;;0.89;76.96;99680.75;4972778;28;19914;-84
2022/03/11 10:09:18;;;;;;;;;;;;;;;0.91;77.21;99679.00;4971636;28;20888;-84
2022/03/11 10:11:46;;;;;;;;;;;;;;;0.96;77.28;99673.75;4972788;28;19969;-85
2022/03/11 10:14:12;;;;;;;;;;;;;;;1.00;77.49;99678.06;4971527;28;19961;-83
2022/03/11 10:16:37;;;;;;;;;;;;;;;0.97;77.21;99672.88;4971634;28;19922;-84
2022/03/11 10:19:04;;;;;;;;;;;;;;;0.94;76.95;99673.75;4971439;28;19922;-84
2022/03/11 10:21:34;;;;;;;;;;;;;;;0.97;76.95;99668.50;4972184;28;19925;-84
2022/03/11 10:24:01;;;;;;;;;;;;;;;0.96;76.89;99658.97;4970938;28;19918;-84
2022/03/11 10:26:30;;;;;;;;;;;;;;;0.98;76.82;99662.44;4971497;28;19918;-83
2022/03/11 10:28:57;;;;;;;;;;;;;;;1.05;76.80;99666.75;4972727;28;19918;-84
2022/03/11 10:31:28;;;;;;;;;;;;;;;1.02;76.90;99663.28;4972713;28;20425;-84
2022/03/11 10:34:10;;;;;;;;;;;;;;;1.04;77.08;99661.53;4984372;28;19922;-84
2022/03/11 10:36:35;;;;;;;;;;;;;;;0.95;76.78;99649.41;4973950;28;19969;-84
2022/03/11 10:39:17;;;;;;;;;;;;;;;1.08;77.36;99639.75;4976573;28;19957;-84
2022/03/11 10:41:42;;;;;;;;;;;;;;;1.13;77.88;99643.19;4976483;28;19926;-83
2022/03/11 10:44:12;;;;;;;;;;;;;;;1.11;77.67;99639.72;4974861;28;19922;-84
2022/03/11 10:46:40;;;;;;;;;;;;;;;1.08;77.48;99639.75;4975039;28;19914;-85
2022/03/11 10:49:06;;;;;;;;;;;;;;;1.11;77.54;99628.44;4974781;28;19961;-84
2022/03/11 10:51:33;;;;;;;;;;;;;;;1.13;77.38;99621.47;4975092;28;20385;-80
2022/03/11 10:53:59;;;;;;;;;;;;;;;1.09;77.24;99618.88;4976106;28;20009;-86
2022/03/11 10:56:29;;;;;;;;;;;;;;;1.08;77.19;99613.66;4970057;28;20005;-86
2022/03/11 10:58:55;;;;;;;;;;;;;;;1.07;76.98;99609.34;4975496;28;19926;-88
2022/03/11 11:01:39;;;;;;;;;;;;;;;1.05;77.03;99608.44;4974724;28;19924;-87
2022/03/11 11:04:07;;;;;;;;;;;;;;;1.08;77.06;99605.81;4975871;28;19976;-86
2022/03/11 11:06:32;;;;;;;;;;;;;;;1.10;77.00;99604.06;4973195;28;19957;-85
2022/03/11 11:08:58;;;;;;;;;;;;;;;1.12;77.26;99604.06;4974222;28;19949;-86
2022/03/11 11:11:23;;;;;;;;;;;;;;;1.13;77.34;99596.22;4974496;28;19922;-88
2022/03/11 11:13:49;;;;;;;;;;;;;;;1.12;77.34;99594.50;4975689;28;19922;-85
2022/03/11 11:16:14;;;;;;;;;;;;;;;1.13;77.03;99588.38;4975709;28;19969;-84
2022/03/11 11:18:44;;;;;;;;;;;;;;;1.12;77.04;99586.66;4974507;28;19925;-85
2022/03/11 11:21:10;;;;;;;;;;;;;;;1.14;76.72;99571.00;4974477;28;19929;-88
2022/03/11 11:23:36;;;;;;;;;;;;;;;1.16;76.50;99564.88;4975669;28;20721;-87
2022/03/11 11:26:02;;;;;;;;;;;;;;;1.11;76.51;99561.44;4975167;28;19969;-86
2022/03/11 11:28:28;;;;;;;;;;;;;;;1.20;76.65;99563.97;4975492;28;19950;-84
2022/03/11 11:30:54;;;;;;;;;;;;;;;1.19;76.44;99550.94;4973921;28;19988;-88
2022/03/11 11:33:19;;;;;;;;;;;;;;;1.20;76.54;99553.53;4974132;28;19948;-86
2022/03/11 11:35:45;;;;;;;;;;;;;;;1.21;76.58;99549.19;4974986;28;20373;-85
2022/03/11 11:38:29;;;;;;;;;;;;;;;1.19;76.44;99543.09;4975137;28;19980;-84
2022/03/11 11:40:55;;;;;;;;;;;;;;;1.26;76.82;99540.44;4974281;28;19965;-84
2022/03/11 11:43:28;;;;;;;;;;;;;;;1.25;76.92;99535.22;4974994;28;19922;-85
2022/03/11 11:46:02;;;;;;;;;;;;;;;1.22;76.69;99528.28;4973509;28;19925;-86
2022/03/11 11:48:43;;;;;;;;;;;;;;;1.18;76.68;99530.94;4972473;28;19926;-86
2022/03/11 11:51:12;;;;;;;;;;;;;;;1.21;76.53;99521.34;4973287;28;20020;-86
2022/03/11 11:53:40;;;;;;;;;;;;;;;1.22;76.58;99512.63;4974854;28;19922;-87
2022/03/11 11:56:24;;;;;;;;;;;;;;;1.22;76.68;99507.41;4975136;28;20366;-87
2022/03/11 11:58:51;;;;;;;;;;;;;;;1.24;76.81;99503.03;4973776;28;19973;-87
2022/03/11 12:01:36;;;;;;;;;;;;;;;1.29;77.07;99502.13;4972784;28;19918;-88
2022/03/11 12:04:20;;;;;;;;;;;;;;;1.27;77.15;99489.94;4974672;28;19922;-86
2022/03/11 12:06:56;;;;;;;;;;;;;;;1.31;77.16;99496.03;4974793;28;19914;-86
2022/03/11 12:12:28;;;;;;;;;;;;;;;1.27;77.03;99479.50;4974176;28;20298;-85
2022/03/11 12:15:08;;;;;;;;;;;;;;;1.31;77.06;99474.25;4974847;28;20373;-87
2022/03/11 12:17:56;;;;;;;;;;;;;;;1.32;77.43;99476.00;4972199;28;19929;-87
2022/03/11 12:20:24;;;;;;;;;;;;;;;1.32;77.50;99466.41;4974353;28;19949;-88
2022/03/11 12:22:52;;;;;;;;;;;;;;;1.32;77.43;99460.31;4974029;28;19922;-87
2022/03/11 12:25:20;;;;;;;;;;;;;;;1.31;77.42;99464.69;4974515;28;19929;-88
2022/03/11 12:27:55;;;;;;;;;;;;;;;1.32;77.16;99453.34;4974555;28;20345;-88
2022/03/11 12:30:23;;;;;;;;;;;;;;;1.32;76.74;99450.75;4973810;28;19944;-86
2022/03/11 12:32:50;;;;;;;;;;;;;;;1.34;76.90;99453.34;4973081;28;19918;-87
2022/03/11 12:35:17;;;;;;;;;;;;;;;1.37;77.06;99445.47;4974381;28;20009;-87
2022/03/11 12:37:42;;;;;;;;;;;;;;;1.37;77.02;99453.31;4974320;28;20017;-86
2022/03/11 12:40:09;;;;;;;;;;;;;;;1.34;76.96;99443.78;4974420;28;20468;-87
2022/03/11 12:42:42;;;;;;;;;;;;;;;1.36;76.81;99436.78;4974188;28;19928;-84
2022/03/11 12:45:08;;;;;;;;;;;;;;;1.35;76.81;99436.81;4974076;28;20301;-87
2022/03/11 12:47:37;;;;;;;;;;;;;;;1.36;76.98;99423.72;4972659;28;20244;-87
2022/03/11 12:50:04;;;;;;;;;;;;;;;1.49;77.63;99421.00;4973591;28;20017;-88
2022/03/11 12:52:35;;;;;;;;;;;;;;;1.89;81.38;99425.72;4973095;28;20293;-87
2022/03/11 12:55:01;;;;;;;;;;;;;;;1.95;84.33;99423.88;4972089;28;19922;-88
2022/03/11 12:57:26;;;;;;;;;;;;;;;2.02;86.58;99413.34;4971826;28;20400;-85
2022/03/11 12:59:51;;;;;;;;;;;;;;;2.08;88.49;99415.88;4972078;28;20416;-84
2022/03/11 13:02:17;;;;;;;;;;;;;;;2.10;90.00;99414.94;4971213;28;19918;-87
2022/03/11 13:04:43;;;;;;;;;;;;;;;2.15;91.29;99397.47;4974013;28;19926;-87
2022/03/11 13:07:08;;;;;;;;;;;;;;;2.17;92.59;99397.41;4972210;28;20293;-87
2022/03/11 13:09:33;;;;;;;;;;;;;;;2.15;93.74;99402.69;4973553;28;20392;-86
2022/03/11 13:12:17;;;;;;;;;;;;;;;2.16;95.25;99399.19;4973729;28;20300;-87
2022/03/11 13:14:43;;;;;;;;;;;;;;;2.17;96.82;99394.81;4973599;28;20357;-87
2022/03/11 13:17:08;;;;;;;;;;;;;;;2.24;98.59;99393.84;4971220;28;19918;-86
2022/03/11 13:19:33;;;;;;;;;;;;;;;2.27;100.00;99390.31;4973558;28;19918;-86
2022/03/11 13:21:59;;;;;;;;;;;;;;;2.45;100.00;99390.00;4973575;28;20270;-86
2022/03/11 13:24:24;;;;;;;;;;;;;;;2.55;100.00;99385.50;4973771;28;20013;-86
2022/03/11 13:26:49;;;;;;;;;;;;;;;2.68;100.00;99387.03;4973533;28;20057;-87
2022/03/11 13:29:14;;;;;;;;;;;;;;;2.73;100.00;99384.34;4973427;28;20370;-87
2022/03/11 13:31:40;;;;;;;;;;;;;;;2.81;100.00;99381.56;4970991;28;19918;-88
2022/03/11 13:34:09;;;;;;;;;;;;;;;2.88;100.00;99389.28;4973388;28;20365;-87
2022/03/11 13:36:35;;;;;;;;;;;;;;;2.94;100.00;99377.84;4972722;28;19926;-84
2022/03/11 13:39:03;;;;;;;;;;;;;;;2.98;100.00;99379.50;4973100;28;19918;-84
2022/03/11 13:41:37;;;;;;;;;;;;;;;3.02;100.00;99375.09;4973047;28;20309;-87
2022/03/11 13:44:02;;;;;;;;;;;;;;;3.08;100.00;99375.84;4973264;28;19962;-89
2022/03/11 13:46:28;;;;;;;;;;;;;;;3.06;100.00;99382.88;4972394;28;20020;-86
2022/03/11 13:49:23;;;;;;;;;;;;;;;3.07;100.00;99381.97;4972213;28;19929;-88
2022/03/11 13:51:51;;;;;;;;;;;;;;;3.15;100.00;99380.97;4971528;28;19918;-88
2022/03/11 13:54:28;;;;;;;;;;;;;;;3.18;100.00;99383.53;4972355;28;20405;-88
2022/03/11 13:56:57;;;;;;;;;;;;;;;3.20;100.00;99381.75;4971993;28;20289;-89
2022/03/11 13:59:30;;;;;;;;;;;;;;;3.23;100.00;99379.06;4972864;28;20072;-85
2022/03/11 14:02:05;;;;;;;;;;;;;;;3.27;100.00;99378.09;4969775;28;19925;-84
2022/03/11 14:04:31;;;;;;;;;;;;;;;3.25;100.00;99377.28;4972626;28;19918;-83
2022/03/11 14:07:05;;;;;;;;;;;;;;;3.28;100.00;99364.97;4972777;28;20392;-85
2022/03/11 14:09:30;;;;;;;;;;;;;;;3.31;100.00;99366.69;4973693;28;20404;-87
2022/03/11 14:11:56;;;;;;;;;;;;;;;3.31;100.00;99361.44;4976981;28;20423;-85
2022/03/11 14:14:25;;;;;;;;;;;;;;;3.34;100.00;99365.75;4975393;28;20341;-87
2022/03/11 14:17:01;;;;;;;;;;;;;;;3.36;100.00;99372.69;4975488;28;19968;-85
2022/03/11 14:19:27;;;;;;;;;;;;;;;3.37;100.00;99363.09;4975983;28;19925;-87
2022/03/11 14:21:53;;;;;;;;;;;;;;;3.40;100.00;99361.25;4976629;28;19922;-86
2022/03/11 14:24:19;;;;;;;;;;;;;;;3.39;100.00;99359.53;4975904;28;20032;-83
2022/03/11 14:26:44;;;;;;;;;;;;;;;3.13;100.00;99365.28;4976486;28;19914;-83
2022/03/11 14:29:10;;;;;;;;;;;;;;;2.38;100.00;99363.97;4976627;28;19922;-83
2022/03/11 14:31:35;;;;;;;;;;;;;;;2.20;100.00;99366.00;4975063;28;20357;-83
2022/03/11 14:34:00;;;;;;;;;;;;;;;2.09;100.00;99365.31;4976553;28;19918;-83
2022/03/11 14:36:25;;;;;;;;;;;;;;;2.02;100.00;99363.69;4975087;28;19960;-86
2022/03/11 14:38:51;;;;;;;;;;;;;;;1.97;100.00;99359.38;4976411;28;19920;-84
2022/03/11 14:41:16;;;;;;;;;;;;;;;1.91;100.00;99356.84;4974973;28;19957;-87
2022/03/11 14:43:41;;;;;;;;;;;;;;;1.88;100.00;99361.25;4976366;28;20289;-87
2022/03/11 14:46:07;;;;;;;;;;;;;;;1.83;100.00;99358.72;4976236;28;19962;-87
2022/03/11 14:48:33;;;;;;;;;;;;;;;1.72;100.00;99364.06;4974717;28;20026;-83
2022/03/11 14:50:58;;;;;;;;;;;;;;;1.70;100.00;99359.78;4976387;28;19918;-82
2022/03/11 14:53:23;;;;;;;;;;;;;;;1.70;100.00;99359.78;4976215;28;19945;-83
2022/03/11 14:55:49;;;;;;;;;;;;;;;1.64;99.65;99363.31;4975471;28;20393;-84
2022/03/11 14:58:15;;;;;;;;;;;;;;;1.63;98.85;99353.78;4975889;28;20366;-83
2022/03/11 15:00:40;;;;;;;;;;;;;;;1.66;98.09;99356.34;4976077;28;19929;-83
2022/03/11 15:03:07;;;;;;;;;;;;;;;1.59;97.36;99354.69;4974674;28;19922;-86
2022/03/11 15:05:35;;;;;;;;;;;;;;;1.56;96.73;99349.50;4975991;28;19922;-82
2022/03/11 15:08:01;;;;;;;;;;;;;;;1.58;96.10;99350.34;4975263;28;20007;-88
2022/03/11 15:10:26;;;;;;;;;;;;;;;1.56;95.23;99355.59;4974554;28;19993;-83
2022/03/11 15:12:53;;;;;;;;;;;;;;;1.47;94.58;99349.63;4975916;28;19922;-83
2022/03/11 15:15:19;;;;;;;;;;;;;;;1.42;93.96;99347.94;4975652;28;19965;-83
2022/03/11 15:17:44;;;;;;;;;;;;;;;1.42;93.28;99347.06;4974450;28;20528;-83
2022/03/11 15:20:10;;;;;;;;;;;;;;;1.41;92.83;99345.34;4974998;28;19918;-83
2022/03/11 15:22:35;;;;;;;;;;;;;;;1.38;92.23;99351.47;4973586;28;20329;-88
2022/03/11 15:25:01;;;;;;;;;;;;;;;1.38;91.55;99355.84;4975655;28;19925;-87
2022/03/11 15:27:26;;;;;;;;;;;;;;;1.41;90.97;99351.44;4974353;28;19918;-83
2022/03/11 15:29:52;;;;;;;;;;;;;;;1.30;90.59;99344.63;4974933;28;19923;-84
2022/03/11 15:32:17;;;;;;;;;;;;;;;1.31;90.28;99335.88;4973604;28;19922;-87
2022/03/11 15:34:42;;;;;;;;;;;;;;;1.29;89.89;99342.88;4975288;28;19977;-87
2022/03/11 15:37:08;;;;;;;;;;;;;;;1.28;89.44;99334.19;4975273;28;19923;-87
2022/03/11 15:39:33;;;;;;;;;;;;;;;1.37;89.33;99344.53;4975384;28;19922;-86
2022/03/11 15:41:58;;;;;;;;;;;;;;;1.26;88.97;99341.16;4974103;28;19918;-87
2022/03/11 15:44:23;;;;;;;;;;;;;;;1.30;88.91;99337.66;4975241;28;19994;-88
2022/03/11 15:46:49;;;;;;;;;;;;;;;1.30;88.72;99337.66;4973881;28;20362;-87
2022/03/11 15:49:14;;;;;;;;;;;;;;;1.22;88.58;99344.72;4973738;28;19972;-83
2022/03/11 15:51:40;;;;;;;;;;;;;;;1.24;88.40;99332.50;4973853;28;19961;-83
2022/03/11 15:54:05;;;;;;;;;;;;;;;1.20;88.08;99331.69;4975295;28;19918;-82
2022/03/11 15:56:30;;;;;;;;;;;;;;;1.23;87.90;99333.41;4972688;28;19962;-83
2022/03/11 15:58:55;;;;;;;;;;;;;;;1.20;87.52;99331.69;4973868;28;19953;-83
2022/03/11 16:01:24;;;;;;;;;;;;;;;1.19;87.67;99327.34;4974697;28;20429;-85
2022/03/11 16:03:53;;;;;;;;;;;;;;;1.25;87.54;99334.25;4972308;28;19919;-85
2022/03/11 16:06:19;;;;;;;;;;;;;;;1.22;87.66;99329.91;4973603;28;20087;-87
2022/03/11 16:08:46;;;;;;;;;;;;;;;1.25;87.95;99327.25;4972277;28;20274;-84
2022/03/11 16:11:11;;;;;;;;;;;;;;;1.19;87.69;99324.72;4973198;28;19922;-84
2022/03/11 16:13:37;;;;;;;;;;;;;;;1.17;87.49;99331.72;4974632;28;20384;-82
2022/03/11 16:16:02;;;;;;;;;;;;;;;1.17;87.21;99323.88;4974404;28;19976;-85
2022/03/11 16:18:27;;;;;;;;;;;;;;;1.19;87.15;99326.47;4972070;28;19929;-83
2022/03/11 16:20:53;;;;;;;;;;;;;;;1.18;87.16;99328.22;4974653;28;19929;-86
2022/03/11 16:23:18;;;;;;;;;;;;;;;1.09;86.83;99323.97;4973217;28;19929;-84
2022/03/11 16:25:44;;;;;;;;;;;;;;;1.12;86.74;99328.31;4973358;28;20338;-85
2022/03/11 16:28:09;;;;;;;;;;;;;;;1.09;86.67;99323.13;4973169;28;19925;-86
2022/03/11 16:30:37;;;;;;;;;;;;;;;1.12;86.54;99322.19;4955133;28;21347;-90
2022/03/11 16:33:02;;;;;;;;;;;;;;;1.14;86.51;99323.91;4970870;28;19925;-84
2022/03/11 16:35:27;;;;;;;;;;;;;;;1.12;86.60;99328.31;4973823;28;19926;-89
2022/03/11 16:37:53;;;;;;;;;;;;;;;1.12;86.37;99330.91;4971790;28;19918;-84
2022/03/11 16:40:18;;;;;;;;;;;;;;;1.11;86.18;99337.00;4972691;28;19986;-83
2022/03/11 16:42:43;;;;;;;;;;;;;;;1.12;85.98;99337.84;4971618;28;20426;-81
2022/03/11 16:45:09;;;;;;;;;;;;;;;1.09;85.94;99338.78;4972487;28;19926;-82
2022/03/11 16:47:35;;;;;;;;;;;;;;;1.12;85.96;99343.97;4970428;28;19928;-83
2022/03/11 16:50:03;;;;;;;;;;;;;;;1.11;85.93;99334.38;4971625;28;20016;-83
2022/03/11 16:52:28;;;;;;;;;;;;;;;1.08;85.81;99350.09;4972452;28;19929;-84
2022/03/11 16:54:54;;;;;;;;;;;;;;;1.08;85.63;99347.47;4972589;28;19922;-82
2022/03/11 16:57:19;;;;;;;;;;;;;;;1.08;85.46;99352.69;4972594;28;19926;-82
2022/03/11 16:59:44;;;;;;;;;;;;;;;1.12;85.51;99346.56;4971930;28;19969;-81
2022/03/11 17:02:11;;;;;;;;;;;;;;;1.12;85.37;99353.50;4972268;28;20029;-81
2022/03/11 17:04:37;;;;;;;;;;;;;;;1.11;85.29;99346.59;4971640;28;19922;-83
2022/03/11 17:07:04;;;;;;;;;;;;;;;1.08;85.23;99348.31;4973548;28;19972;-85
2022/03/11 17:09:30;;;;;;;;;;;;;;;1.09;85.15;99351.81;4972006;28;19929;-82
2022/03/11 17:11:55;;;;;;;;;;;;;;;1.05;85.11;99361.44;4971762;28;19944;-84
2022/03/11 17:14:20;;;;;;;;;;;;;;;1.05;85.12;99365.78;4972480;28;19926;-85
2022/03/11 17:16:45;;;;;;;;;;;;;;;1.07;85.04;99362.28;4971896;28;19922;-84
2022/03/11 17:19:11;;;;;;;;;;;;;;;1.04;84.96;99372.75;4972063;28;20420;-83
2022/03/11 17:21:37;;;;;;;;;;;;;;;1.06;84.98;99376.19;4971530;28;20307;-85
2022/03/11 17:24:03;;;;;;;;;;;;;;;1.05;84.95;99374.50;4971543;28;19937;-85
2022/03/11 17:26:28;;;;;;;;;;;;;;;1.05;84.80;99373.59;4971598;28;19922;-85
2022/03/11 17:28:54;;;;;;;;;;;;;;;1.07;84.62;99377.09;4971476;28;20293;-84
2022/03/11 17:31:19;;;;;;;;;;;;;;;1.08;84.74;99384.00;4971097;28;19922;-85
2022/03/11 17:33:45;;;;;;;;;;;;;;;1.05;84.69;99384.94;4969473;28;19926;-82
2022/03/11 17:36:14;;;;;;;;;;;;;;;1.03;84.65;99388.41;4971673;28;19926;-85
2022/03/11 17:38:39;;;;;;;;;;;;;;;1.04;84.58;99385.78;4973168;28;19973;-82
2022/03/11 17:41:05;;;;;;;;;;;;;;;1.06;84.37;99386.63;4972001;28;19918;-83
2022/03/11 17:43:30;;;;;;;;;;;;;;;1.06;84.36;99389.25;4964855;28;19954;-83
2022/03/11 17:45:55;;;;;;;;;;;;;;;1.06;84.18;99384.03;4971229;28;19926;-83
2022/03/11 17:48:20;;;;;;;;;;;;;;;1.07;83.94;99393.59;4968598;28;20441;-83
2022/03/11 17:50:46;;;;;;;;;;;;;;;1.04;83.79;99396.22;4972007;28;20041;-83
2022/03/11 17:53:18;;;;;;;;;;;;;;;1.03;83.60;99402.31;4971139;28;19937;-82
2022/03/11 17:55:44;;;;;;;;;;;;;;;1.06;83.58;99401.44;4970391;28;19969;-83
2022/03/11 17:58:11;;;;;;;;;;;;;;;1.04;83.33;99398.84;4970433;28;19966;-84
2022/03/11 18:00:36;;;;;;;;;;;;;;;1.03;83.06;99404.06;4971006;28;19973;-86
2022/03/11 18:03:03;;;;;;;;;;;;;;;1.07;82.92;99408.41;4969300;28;19926;-84
2022/03/11 18:05:29;;;;;;;;;;;;;;;1.03;82.94;99410.16;4972018;28;20061;-82
2022/03/11 18:07:54;;;;;;;;;;;;;;;1.05;82.86;99420.56;4971721;28;20407;-82
2022/03/11 18:10:19;;;;;;;;;;;;;;;1.03;82.70;99422.34;4970850;28;19930;-82
2022/03/11 18:12:45;;;;;;;;;;;;;;;1.03;82.52;99417.97;4970798;28;20017;-85
2022/03/11 18:15:10;;;;;;;;;;;;;;;1.02;82.51;99415.38;4972003;28;20282;-82
2022/03/11 18:17:36;;;;;;;;;;;;;;;1.03;82.39;99420.59;4968352;28;20078;-82
2022/03/11 18:20:04;;;;;;;;;;;;;;;1.05;82.35;99420.56;4971993;28;19922;-84
2022/03/11 18:22:29;;;;;;;;;;;;;;;1.07;82.17;99426.66;4972752;28;20281;-84
2022/03/11 18:24:55;;;;;;;;;;;;;;;1.04;82.05;99419.72;4972731;28;19929;-84
2022/03/11 18:27:20;;;;;;;;;;;;;;;1.06;81.85;99422.31;4972848;28;19923;-84
2022/03/11 18:29:46;;;;;;;;;;;;;;;1.06;81.54;99432.75;4970395;28;19926;-84
2022/03/11 18:32:11;;;;;;;;;;;;;;;1.03;81.58;99432.78;4969528;28;19930;-83
2022/03/11 18:34:36;;;;;;;;;;;;;;;1.06;81.38;99432.75;4970944;28;20391;-83
2022/03/11 18:37:02;;;;;;;;;;;;;;;1.03;81.31;99432.78;4970887;28;20424;-84
2022/03/11 18:39:28;;;;;;;;;;;;;;;1.06;81.31;99432.75;4972570;28;19925;-84
2022/03/11 18:41:53;;;;;;;;;;;;;;;1.04;81.22;99439.75;4970498;28;19973;-84
2022/03/11 18:44:19;;;;;;;;;;;;;;;1.06;81.11;99437.97;4966435;28;19980;-83
2022/03/11 18:46:44;;;;;;;;;;;;;;;1.09;80.91;99443.16;4971007;28;20017;-84
2022/03/11 18:49:11;;;;;;;;;;;;;;;1.04;80.75;99456.25;4969922;28;20793;-82
2022/03/11 18:51:36;;;;;;;;;;;;;;;0.98;80.71;99445.00;4968415;28;20532;-82
2022/03/11 18:54:02;;;;;;;;;;;;;;;1.05;80.68;99449.28;4969404;28;19968;-84
2022/03/11 18:56:27;;;;;;;;;;;;;;;1.06;80.55;99456.22;4972526;28;19922;-81
2022/03/11 18:58:56;;;;;;;;;;;;;;;1.06;80.25;99454.47;4971430;28;19926;-83
2022/03/11 19:01:21;;;;;;;;;;;;;;;1.08;80.29;99451.84;4975463;28;20337;-84
2022/03/11 19:03:47;;;;;;;;;;;;;;;1.05;80.10;99452.78;4972608;28;19922;-81
2022/03/11 19:06:12;;;;;;;;;;;;;;;1.10;80.13;99457.91;4973358;28;20300;-83
2022/03/11 19:08:38;;;;;;;;;;;;;;;1.09;79.97;99458.81;4973101;28;19922;-81
2022/03/11 19:11:05;;;;;;;;;;;;;;;1.03;79.76;99449.28;4975566;28;19922;-82
2022/03/11 19:13:31;;;;;;;;;;;;;;;1.04;79.51;99451.03;4975300;28;19926;-81
2022/03/11 19:15:56;;;;;;;;;;;;;;;1.08;79.59;99447.50;4975659;28;20439;-84
2022/03/11 19:18:24;;;;;;;;;;;;;;;1.07;79.29;99447.53;4972721;28;19918;-83
2022/03/11 19:20:49;;;;;;;;;;;;;;;1.09;79.02;99454.44;4972432;28;19922;-84
2022/03/11 19:23:14;;;;;;;;;;;;;;;1.09;79.04;99448.38;4971479;28;19925;-84
2022/03/11 19:25:40;;;;;;;;;;;;;;;1.09;78.93;99458.81;4972654;28;19929;-85
2022/03/11 19:28:05;;;;;;;;;;;;;;;1.12;78.92;99457.91;4973658;28;20412;-82
2022/03/11 19:30:30;;;;;;;;;;;;;;;1.09;78.81;99464.88;4973646;28;19922;-84
2022/03/11 19:32:56;;;;;;;;;;;;;;;1.07;78.54;99468.41;4966944;28;19922;-84
2022/03/11 19:35:22;;;;;;;;;;;;;;;1.04;78.52;99468.44;4972456;28;20706;-82
2022/03/11 19:37:48;;;;;;;;;;;;;;;1.03;78.46;99471.91;4968936;28;19922;-83
2022/03/11 19:40:14;;;;;;;;;;;;;;;1.08;78.30;99468.38;4973944;28;19918;-85
2022/03/11 19:42:39;;;;;;;;;;;;;;;1.09;78.31;99471.88;4973642;28;19930;-84
2022/03/11 19:45:06;;;;;;;;;;;;;;;1.08;78.23;99473.59;4973447;28;20373;-84
2022/03/11 19:47:32;;;;;;;;;;;;;;;1.07;78.26;99468.41;4973547;28;19937;-84
2022/03/11 19:49:57;;;;;;;;;;;;;;;1.17;78.03;99479.63;4973460;28;19934;-84
2022/03/11 19:52:23;;;;;;;;;;;;;;;1.11;77.95;99474.47;4971832;28;20377;-82
2022/03/11 19:54:48;;;;;;;;;;;;;;;1.13;77.65;99472.69;4973993;28;20429;-83
2022/03/11 19:57:13;;;;;;;;;;;;;;;1.13;77.68;99478.75;4972618;28;20377;-83
2022/03/11 19:59:42;;;;;;;;;;;;;;;1.13;77.41;99480.53;4973856;28;19922;-83
2022/03/11 20:02:08;;;;;;;;;;;;;;;1.12;77.34;99484.88;4970719;28;19930;-83
2022/03/11 20:04:33;;;;;;;;;;;;;;;1.16;77.29;99489.19;4974095;28;19930;-83
2022/03/11 20:06:59;;;;;;;;;;;;;;;1.13;77.45;99494.44;4972566;28;19923;-83
2022/03/11 20:09:25;;;;;;;;;;;;;;;1.11;77.42;99496.19;4968789;28;19969;-82
2022/03/11 20:11:50;;;;;;;;;;;;;;;1.14;77.43;99505.75;4973286;28;20409;-86
2022/03/11 20:14:16;;;;;;;;;;;;;;;1.14;77.26;99503.16;4973034;28;19969;-82
2022/03/11 20:16:42;;;;;;;;;;;;;;;1.10;77.07;99507.50;4973165;28;19922;-83
2022/03/11 20:19:07;;;;;;;;;;;;;;;1.13;77.07;99514.44;4972645;28;19964;-80
2022/03/11 20:21:33;;;;;;;;;;;;;;;1.16;77.03;99507.44;4973446;28;19926;-84
2022/03/11 20:23:59;;;;;;;;;;;;;;;1.13;77.08;99517.91;4972043;28;19922;-84
2022/03/11 20:26:25;;;;;;;;;;;;;;;1.13;77.01;99520.53;4972125;28;19922;-84
2022/03/11 20:28:50;;;;;;;;;;;;;;;1.14;76.90;99514.44;4972729;28;20412;-83
2022/03/11 20:31:16;;;;;;;;;;;;;;;1.13;76.97;99517.91;4972762;28;19922;-84
2022/03/11 20:33:41;;;;;;;;;;;;;;;1.14;76.81;99524.88;4972045;28;20437;-85
2022/03/11 20:36:06;;;;;;;;;;;;;;;1.13;76.62;99524.88;4974131;28;20378;-82
2022/03/11 20:38:35;;;;;;;;;;;;;;;1.13;76.34;99528.34;4974233;28;20374;-84